createdAt,value
2023-05-20T00:00:54.953Z,99964.75
2023-05-20T00:03:22.952Z,99961.00
2023-05-20T00:05:50.686Z,99963.69
2023-05-20T00:08:19.241Z,99964.06
2023-05-20T00:10:47.140Z,99970.16
2023-05-20T00:13:14.595Z,99973.88
2023-05-20T00:15:42.109Z,99967.53
2023-05-20T00:18:09.988Z,99972.81
2023-05-20T00:20:37.580Z,99967.72
2023-05-20T00:23:05.164Z,99969.44
2023-05-20T00:25:33.166Z,99966.72
2023-05-20T00:28:00.818Z,99965.38
2023-05-20T00:30:28.934Z,99964.34
2023-05-20T00:32:56.690Z,99963.34
2023-05-20T00:35:24.305Z,99957.59
2023-05-20T00:37:51.820Z,99952.84
2023-05-20T00:40:20.934Z,99961.81
2023-05-20T00:42:48.478Z,99965.84
2023-05-20T00:45:16.359Z,99965.66
2023-05-20T00:47:44.501Z,99960.75
2023-05-20T00:50:12.086Z,99968.84
2023-05-20T00:52:41.624Z,99974.28
2023-05-20T00:55:09.534Z,99959.03
2023-05-20T00:57:37.066Z,99970.72
2023-05-20T01:00:05.942Z,99967.34
2023-05-20T01:02:33.731Z,99974.59
2023-05-20T01:05:01.492Z,99965.09
2023-05-20T01:07:29.132Z,99964.06
2023-05-20T01:09:57.083Z,99960.19
2023-05-20T01:12:32.252Z,99973.41
2023-05-20T01:15:11.929Z,99974.41
2023-05-20T01:17:51.818Z,99972.00
2023-05-20T01:20:21.163Z,99976.41
2023-05-20T01:22:57.046Z,99977.87
2023-05-20T01:25:26.441Z,99975.56
2023-05-20T01:27:55.874Z,99978.66
2023-05-20T01:30:28.300Z,99983.41
2023-05-20T01:33:01.862Z,99985.25
2023-05-20T01:35:31.107Z,99982.53
2023-05-20T01:38:00.285Z,99980.66
2023-05-20T01:40:28.010Z,99985.91
2023-05-20T01:42:56.278Z,99985.75
2023-05-20T01:45:25.052Z,99977.44
2023-05-20T01:47:52.696Z,99980.81
2023-05-20T01:50:20.216Z,99980.66
2023-05-20T01:52:47.953Z,99979.81
2023-05-20T01:55:15.582Z,99978.75
2023-05-20T01:57:43.230Z,99974.06
2023-05-20T02:00:11.418Z,99973.16
2023-05-20T02:02:41.004Z,99976.91
2023-05-20T02:05:10.671Z,99972.84
2023-05-20T02:07:38.137Z,99979.31
2023-05-20T02:10:06.376Z,99975.50
2023-05-20T02:12:35.035Z,99976.44
2023-05-20T02:15:02.630Z,99969.59
2023-05-20T02:17:31.900Z,99980.31
2023-05-20T02:19:59.731Z,99974.53
2023-05-20T02:22:28.449Z,99968.59
2023-05-20T02:24:56.026Z,99975.25
2023-05-20T02:27:23.491Z,99969.16
2023-05-20T02:29:51.334Z,99975.41
2023-05-20T02:32:20.768Z,99970.69
2023-05-20T02:34:48.261Z,99970.75
2023-05-20T02:37:16.589Z,99970.03
2023-05-20T02:39:44.028Z,99971.44
2023-05-20T02:42:12.313Z,99965.66
2023-05-20T02:44:40.197Z,99963.09
2023-05-20T02:47:07.840Z,99963.94
2023-05-20T02:49:35.319Z,99963.97
2023-05-20T02:52:04.382Z,99964.06
2023-05-20T02:54:31.845Z,99963.87
2023-05-20T02:56:59.396Z,99965.53
2023-05-20T02:59:27.180Z,99959.25
2023-05-20T03:01:54.654Z,99964.31
2023-05-20T03:04:22.641Z,99961.78
2023-05-20T03:06:52.144Z,99959.94
2023-05-20T03:09:20.013Z,99976.13
2023-05-20T03:11:48.432Z,99978.25
2023-05-20T03:14:16.306Z,99972.69
2023-05-20T03:16:44.750Z,99976.41
2023-05-20T03:19:13.050Z,99978.00
2023-05-20T03:21:41.321Z,99979.00
2023-05-20T03:24:09.088Z,99979.06
2023-05-20T03:26:37.790Z,99980.41
2023-05-20T03:29:05.669Z,99980.06
2023-05-20T03:31:33.546Z,99982.12
2023-05-20T03:34:01.240Z,99982.12
2023-05-20T03:36:29.352Z,99994.19
2023-05-20T03:38:57.241Z,99983.13
2023-05-20T03:41:24.812Z,99986.53
2023-05-20T03:43:52.614Z,99991.28
2023-05-20T03:46:20.623Z,99998.84
2023-05-20T03:48:48.194Z,100001.28
2023-05-20T03:51:15.977Z,99990.03
2023-05-20T03:53:43.801Z,99997.00
2023-05-20T03:56:11.413Z,99996.31
2023-05-20T03:58:39.654Z,99993.59
2023-05-20T04:01:07.237Z,99999.00
2023-05-20T04:03:35.285Z,100003.09
2023-05-20T04:06:04.490Z,100007.34
2023-05-20T04:08:32.498Z,100007.91
2023-05-20T04:11:00.292Z,100008.94
2023-05-20T04:13:27.917Z,100009.66
2023-05-20T04:15:55.510Z,100013.50
2023-05-20T04:18:23.331Z,100013.25
2023-05-20T04:20:54.938Z,100018.25
2023-05-20T04:23:23.621Z,100010.47
2023-05-20T04:25:51.325Z,100015.41
2023-05-20T04:28:18.955Z,100017.22
2023-05-20T04:30:46.736Z,100019.25
2023-05-20T04:33:14.984Z,100016.56
2023-05-20T04:35:42.922Z,100028.41
2023-05-20T04:38:10.726Z,100027.94
2023-05-20T04:40:40.251Z,100027.59
2023-05-20T04:43:08.060Z,100025.03
2023-05-20T04:45:36.798Z,100028.56
2023-05-20T04:48:06.176Z,100033.37
2023-05-20T04:50:37.953Z,100031.22
2023-05-20T04:53:08.906Z,100034.78
2023-05-20T04:55:37.438Z,100037.66
2023-05-20T04:58:05.802Z,100034.56
2023-05-20T05:00:33.689Z,100033.94
2023-05-20T05:03:01.548Z,100021.44
2023-05-20T05:05:29.067Z,100021.44
2023-05-20T05:07:56.769Z,100017.25
2023-05-20T05:10:25.280Z,100013.06
2023-05-20T05:12:52.846Z,100019.28
2023-05-20T05:15:20.652Z,100018.00
2023-05-20T05:17:48.330Z,100020.22
2023-05-20T05:20:16.070Z,100015.72
2023-05-20T05:22:44.527Z,100024.19
2023-05-20T05:25:12.608Z,100030.53
2023-05-20T05:27:40.611Z,100033.75
2023-05-20T05:30:08.947Z,100032.72
2023-05-20T05:32:37.779Z,100035.28
2023-05-20T05:35:08.050Z,100037.13
2023-05-20T05:37:36.230Z,100028.78
2023-05-20T05:40:04.867Z,100040.34
2023-05-20T05:42:32.332Z,100035.25
2023-05-20T05:45:00.127Z,100036.44
2023-05-20T05:47:32.399Z,100043.56
2023-05-20T05:50:00.705Z,100045.81
2023-05-20T05:52:29.128Z,100044.75
2023-05-20T05:54:57.395Z,100047.00
2023-05-20T05:57:25.404Z,100059.22
2023-05-20T05:59:53.641Z,100051.75
2023-05-20T06:02:22.469Z,100051.91
2023-05-20T06:04:50.485Z,100043.16
2023-05-20T06:07:18.784Z,100039.31
2023-05-20T06:09:46.482Z,100034.41
2023-05-20T06:12:14.278Z,100028.31
2023-05-20T06:14:42.030Z,100034.44
2023-05-20T06:17:09.885Z,100038.69
2023-05-20T06:19:37.923Z,100032.03
2023-05-20T06:22:05.609Z,100031.03
2023-05-20T06:24:34.428Z,100035.78
2023-05-20T06:27:03.254Z,100036.13
2023-05-20T06:29:31.019Z,100026.84
2023-05-20T06:31:58.481Z,100030.13
2023-05-20T06:34:26.814Z,100032.78
2023-05-20T06:36:54.389Z,100040.37
2023-05-20T06:39:21.913Z,100038.19
2023-05-20T06:41:49.812Z,100038.03
2023-05-20T06:44:19.392Z,100035.44
2023-05-20T06:46:49.939Z,100028.97
2023-05-20T06:49:17.526Z,100026.03
2023-05-20T06:51:45.550Z,100030.72
2023-05-20T06:54:13.272Z,100023.63
2023-05-20T06:56:42.333Z,100026.28
2023-05-20T06:59:09.915Z,100024.78
2023-05-20T07:01:38.433Z,100026.25
2023-05-20T07:04:06.020Z,100021.84
2023-05-20T07:06:33.865Z,100025.75
2023-05-20T07:09:01.949Z,100025.25
2023-05-20T07:11:29.597Z,100019.25
2023-05-20T07:13:57.259Z,100018.75
2023-05-20T07:16:25.536Z,100010.59
2023-05-20T07:18:53.834Z,100008.56
2023-05-20T07:21:21.467Z,100012.44
2023-05-20T07:23:50.421Z,100006.69
2023-05-20T07:26:18.389Z,99998.59
2023-05-20T07:28:47.186Z,99991.16
2023-05-20T07:31:15.584Z,99989.81
2023-05-20T07:33:43.122Z,99997.62
2023-05-20T07:36:11.394Z,99990.22
2023-05-20T07:38:41.104Z,99989.53
2023-05-20T07:41:09.207Z,99993.87
2023-05-20T07:43:36.760Z,100000.06
2023-05-20T07:46:04.864Z,99995.19
2023-05-20T07:48:32.441Z,99997.91
2023-05-20T07:50:59.911Z,99995.69
2023-05-20T07:53:28.103Z,99992.72
2023-05-20T07:55:56.578Z,99995.78
2023-05-20T07:58:25.176Z,100006.59
2023-05-20T08:00:53.108Z,100002.13
2023-05-20T08:03:22.507Z,99986.37
2023-05-20T08:05:50.473Z,99989.06
2023-05-20T08:08:18.555Z,99987.56
2023-05-20T08:10:47.606Z,99992.31
2023-05-20T08:13:15.133Z,99987.47
2023-05-20T08:15:43.025Z,99989.25
2023-05-20T08:18:11.461Z,99991.50
2023-05-20T08:20:38.962Z,99989.84
2023-05-20T08:23:06.535Z,99984.56
2023-05-20T08:25:34.650Z,99990.97
2023-05-20T08:28:04.076Z,99986.56
2023-05-20T08:30:31.929Z,99982.88
2023-05-20T08:33:00.407Z,99975.47
2023-05-20T08:35:28.910Z,99978.28
2023-05-20T08:37:56.382Z,99971.41
2023-05-20T08:40:24.316Z,99980.63
2023-05-20T08:42:54.946Z,99973.38
2023-05-20T08:45:27.886Z,99974.38
2023-05-20T08:47:56.403Z,99963.81
2023-05-20T08:50:23.910Z,99964.78
2023-05-20T08:52:51.818Z,99961.28
2023-05-20T08:55:26.969Z,99954.41
2023-05-20T08:57:54.772Z,99962.16
2023-05-20T09:00:27.350Z,99960.88
2023-05-20T09:02:57.022Z,99962.16
2023-05-20T09:05:25.913Z,99947.53
2023-05-20T09:07:53.549Z,99953.72
2023-05-20T09:10:21.080Z,99953.38
2023-05-20T09:12:49.284Z,99959.12
2023-05-20T09:15:16.917Z,99955.47
2023-05-20T09:17:44.376Z,99951.78
2023-05-20T09:20:12.557Z,99953.88
2023-05-20T09:22:40.150Z,99952.88
2023-05-20T09:25:08.074Z,99949.03
2023-05-20T09:27:36.224Z,99945.06
2023-05-20T09:30:07.270Z,99948.19
2023-05-20T09:32:34.725Z,99949.19
2023-05-20T09:35:04.435Z,99946.41
2023-05-20T09:37:35.044Z,99949.31
2023-05-20T09:40:07.206Z,99930.00
2023-05-20T09:42:54.956Z,99925.91
2023-05-20T09:45:23.127Z,99922.44
2023-05-20T09:47:52.326Z,99921.06
2023-05-20T09:50:23.674Z,99908.66
2023-05-20T09:52:52.787Z,99905.50
2023-05-20T09:55:23.434Z,99903.97
2023-05-20T09:57:51.962Z,99905.94
2023-05-20T10:00:19.757Z,99900.88
2023-05-20T10:02:51.735Z,99907.25
2023-05-20T10:05:24.217Z,99895.66
2023-05-20T10:07:52.206Z,99904.28
2023-05-20T10:10:52.604Z,99901.31
2023-05-20T10:13:23.299Z,99904.28
2023-05-20T10:16:24.469Z,99899.00
2023-05-20T10:18:58.218Z,99897.75
2023-05-20T10:21:26.205Z,99888.69
2023-05-20T10:23:54.116Z,99885.69
2023-05-20T10:26:22.518Z,99886.97
2023-05-20T10:28:50.043Z,99887.47
2023-05-20T10:31:21.977Z,99892.09
2023-05-20T10:33:52.045Z,99882.38
2023-05-20T10:36:26.961Z,99875.84
2023-05-20T10:39:00.737Z,99873.69
2023-05-20T10:41:29.557Z,99875.94
2023-05-20T10:44:04.712Z,99871.97
2023-05-20T10:46:46.275Z,99869.25
2023-05-20T10:49:24.155Z,99870.44
2023-05-20T10:51:55.599Z,99881.53
2023-05-20T10:54:23.441Z,99864.47
2023-05-20T10:56:53.043Z,99863.19
2023-05-20T10:59:24.146Z,99859.50
2023-05-20T11:01:51.936Z,99852.38
2023-05-20T11:04:19.830Z,99866.66
2023-05-20T11:06:53.621Z,99854.72
2023-05-20T11:09:21.226Z,99854.28
2023-05-20T11:11:51.512Z,99856.03
2023-05-20T11:14:20.222Z,99850.53
2023-05-20T11:16:52.263Z,99839.88
2023-05-20T11:19:21.580Z,99837.19
2023-05-20T11:21:49.339Z,99841.63
2023-05-20T11:24:27.071Z,99842.84
2023-05-20T11:26:56.237Z,99841.09
2023-05-20T11:29:23.772Z,99832.09
2023-05-20T11:31:52.227Z,99832.97
2023-05-20T11:34:26.329Z,99832.97
2023-05-20T11:36:58.869Z,99825.87
2023-05-20T11:39:30.067Z,99823.09
2023-05-20T11:41:58.423Z,99826.41
2023-05-20T11:44:26.469Z,99826.13
2023-05-20T11:47:00.529Z,99832.16
2023-05-20T11:49:28.700Z,99825.31
2023-05-20T11:51:57.184Z,99823.59
2023-05-20T11:54:24.906Z,99830.78
2023-05-20T11:56:54.395Z,99826.22
2023-05-20T11:59:24.253Z,99818.94
2023-05-20T12:01:51.730Z,99816.88
2023-05-20T12:04:19.635Z,99825.34
2023-05-20T12:06:47.269Z,99824.72
2023-05-20T12:09:14.818Z,99823.44
2023-05-20T12:11:44.616Z,99814.66
2023-05-20T12:14:12.193Z,99820.94
2023-05-20T12:16:39.770Z,99818.34
2023-05-20T12:19:08.833Z,99824.41
2023-05-20T12:21:36.642Z,99816.56
2023-05-20T12:24:06.885Z,99815.41
2023-05-20T12:26:35.597Z,99819.97
2023-05-20T12:29:03.321Z,99808.53
2023-05-20T12:31:33.116Z,99806.03
2023-05-20T12:34:01.633Z,99807.00
2023-05-20T12:36:29.209Z,99800.19
2023-05-20T12:38:56.757Z,99805.09
2023-05-20T12:41:24.704Z,99800.19
2023-05-20T12:43:52.228Z,99798.28
2023-05-20T12:46:19.801Z,99797.88
2023-05-20T12:48:48.621Z,99809.34
2023-05-20T12:51:16.170Z,99798.09
2023-05-20T12:53:43.652Z,99794.91
2023-05-20T12:56:11.533Z,99790.69
2023-05-20T12:58:39.012Z,99792.19
2023-05-20T13:01:06.606Z,99785.97
2023-05-20T13:03:34.398Z,99781.94
2023-05-20T13:06:02.020Z,99780.28
2023-05-20T13:08:29.516Z,99776.84
2023-05-20T13:10:57.342Z,99777.91
2023-05-20T13:13:24.903Z,99782.84
2023-05-20T13:15:52.436Z,99779.66
2023-05-20T13:18:20.308Z,99768.91
2023-05-20T13:20:47.805Z,99763.47
2023-05-20T13:23:15.345Z,99760.84
2023-05-20T13:25:43.117Z,99756.16
2023-05-20T13:28:12.632Z,99753.22
2023-05-20T13:30:40.173Z,99761.78
2023-05-20T13:33:08.061Z,99755.13
2023-05-20T13:35:36.385Z,99759.22
2023-05-20T13:38:03.893Z,99754.72
2023-05-20T13:40:31.716Z,99753.59
2023-05-20T13:42:59.145Z,99756.00
2023-05-20T13:45:27.575Z,99754.78
2023-05-20T13:47:55.402Z,99747.09
2023-05-20T13:50:23.225Z,99753.91
2023-05-20T13:52:50.696Z,99752.13
2023-05-20T13:55:18.573Z,99739.09
2023-05-20T13:57:46.731Z,99744.66
2023-05-20T14:00:14.731Z,99740.09
2023-05-20T14:02:42.641Z,99738.41
2023-05-20T14:05:10.724Z,99739.22
2023-05-20T14:07:38.314Z,99741.56
2023-05-20T14:10:07.219Z,99738.56
2023-05-20T14:12:34.687Z,99738.56
2023-05-20T14:15:02.173Z,99737.69
2023-05-20T14:17:30.014Z,99732.72
2023-05-20T14:19:57.714Z,99745.31
2023-05-20T14:22:25.216Z,99739.63
2023-05-20T14:24:52.967Z,99732.13
2023-05-20T14:27:20.511Z,99739.06
2023-05-20T14:29:47.957Z,99720.47
2023-05-20T14:32:15.714Z,99727.97
2023-05-20T14:34:43.342Z,99719.78
2023-05-20T14:37:11.976Z,99714.13
2023-05-20T14:39:39.858Z,99719.22
2023-05-20T14:42:07.529Z,99717.81
2023-05-20T14:44:34.944Z,99711.22
2023-05-20T14:47:03.463Z,99701.25
2023-05-20T14:49:31.691Z,99706.66
2023-05-20T14:51:59.152Z,99693.00
2023-05-20T14:54:27.765Z,99707.25
2023-05-20T14:56:55.307Z,99704.22
2023-05-20T14:59:22.803Z,99708.03
2023-05-20T15:01:50.718Z,99706.66
2023-05-20T15:04:18.183Z,99713.19
2023-05-20T15:06:45.677Z,99716.25
2023-05-20T15:09:13.747Z,99709.22
2023-05-20T15:11:41.209Z,99708.59
2023-05-20T15:14:08.722Z,99703.28
2023-05-20T15:16:37.006Z,99700.81
2023-05-20T15:19:04.599Z,99689.59
2023-05-20T15:21:32.201Z,99695.28
2023-05-20T15:23:59.918Z,99688.50
2023-05-20T15:26:27.884Z,99687.09
2023-05-20T15:28:55.455Z,99682.34
2023-05-20T15:31:23.743Z,99676.94
2023-05-20T15:33:51.254Z,99674.91
2023-05-20T15:36:18.737Z,99677.47
2023-05-20T15:38:46.572Z,99679.84
2023-05-20T15:41:14.868Z,99676.94
2023-05-20T15:43:43.494Z,99670.75
2023-05-20T15:46:12.600Z,99668.41
2023-05-20T15:48:41.518Z,99673.19
2023-05-20T15:51:10.071Z,99660.34
2023-05-20T15:53:40.090Z,99661.66
2023-05-20T15:56:09.094Z,99664.69
2023-05-20T15:58:37.196Z,99665.63
2023-05-20T16:01:06.791Z,99671.94
2023-05-20T16:03:35.223Z,99664.09
2023-05-20T16:06:03.943Z,99665.19
2023-05-20T16:08:34.339Z,99665.28
2023-05-20T16:11:02.738Z,99667.16
2023-05-20T16:13:31.452Z,99669.41
2023-05-20T16:16:00.365Z,99671.31
2023-05-20T16:18:30.133Z,99658.22
2023-05-20T16:20:59.021Z,99662.94
2023-05-20T16:23:27.497Z,99654.75
2023-05-20T16:25:56.470Z,99650.31
2023-05-20T16:28:26.089Z,99653.84
2023-05-20T16:30:54.578Z,99651.09
2023-05-20T16:33:22.873Z,99655.94
2023-05-20T16:35:50.483Z,99651.53
2023-05-20T16:38:18.577Z,99661.62
2023-05-20T16:40:47.264Z,99658.81
2023-05-20T16:43:16.138Z,99662.53
2023-05-20T16:45:45.047Z,99661.56
2023-05-20T16:48:13.850Z,99667.03
2023-05-20T16:50:43.557Z,99666.72
2023-05-20T16:53:11.652Z,99674.06
2023-05-20T16:55:39.959Z,99668.91
2023-05-20T16:58:07.921Z,99674.59
2023-05-20T17:00:35.673Z,99671.94
2023-05-20T17:03:04.323Z,99671.28
2023-05-20T17:05:31.933Z,99675.00
2023-05-20T17:08:00.789Z,99668.97
2023-05-20T17:10:29.574Z,99669.53
2023-05-20T17:12:57.760Z,99671.03
2023-05-20T17:15:25.664Z,99680.94
2023-05-20T17:17:53.486Z,99686.06
2023-05-20T17:20:21.032Z,99677.62
2023-05-20T17:22:48.523Z,99683.97
2023-05-20T17:25:16.273Z,99680.78
2023-05-20T17:27:43.796Z,99691.81
2023-05-20T17:30:11.582Z,99689.25
2023-05-20T17:32:40.585Z,99689.25
2023-05-20T17:35:08.544Z,99685.03
2023-05-20T17:37:36.968Z,99686.13
2023-05-20T17:40:07.810Z,99685.69
2023-05-20T17:42:35.697Z,99690.97
2023-05-20T17:45:03.326Z,99687.56
2023-05-20T17:47:31.534Z,99683.38
2023-05-20T17:50:00.086Z,99689.50
2023-05-20T17:52:27.560Z,99688.00
2023-05-20T17:54:55.586Z,99689.69
2023-05-20T17:57:23.105Z,99691.16
2023-05-20T17:59:50.953Z,99693.47
2023-05-20T18:02:18.780Z,99690.53
2023-05-20T18:04:46.673Z,99692.88
2023-05-20T18:07:14.442Z,99697.91
2023-05-20T18:09:41.926Z,99696.84
2023-05-20T18:12:09.705Z,99692.44
2023-05-20T18:14:37.183Z,99694.75
2023-05-20T18:17:04.887Z,99693.31
2023-05-20T18:19:33.983Z,99695.59
2023-05-20T18:22:02.821Z,99694.72
2023-05-20T18:24:30.681Z,99695.56
2023-05-20T18:26:58.476Z,99693.84
2023-05-20T18:29:27.142Z,99706.44
2023-05-20T18:31:54.638Z,99693.16
2023-05-20T18:34:22.435Z,99692.91
2023-05-20T18:36:50.013Z,99701.78
2023-05-20T18:39:20.723Z,99694.59
2023-05-20T18:41:48.586Z,99699.66
2023-05-20T18:44:17.074Z,99704.13
2023-05-20T18:46:44.966Z,99705.91
2023-05-20T18:49:13.082Z,99701.44
2023-05-20T18:51:41.105Z,99704.00
2023-05-20T18:54:08.662Z,99701.00
2023-05-20T18:56:36.495Z,99702.06
2023-05-20T18:59:03.956Z,99702.28
2023-05-20T19:01:33.829Z,99700.59
2023-05-20T19:04:02.059Z,99700.19
2023-05-20T19:06:29.607Z,99707.19
2023-05-20T19:08:57.103Z,99715.38
2023-05-20T19:11:24.862Z,99711.84
2023-05-20T19:13:52.314Z,99709.94
2023-05-20T19:16:20.137Z,99713.47
2023-05-20T19:18:47.991Z,99717.91
2023-05-20T19:21:16.480Z,99714.72
2023-05-20T19:23:43.982Z,99716.63
2023-05-20T19:26:11.886Z,99716.81
2023-05-20T19:28:39.374Z,99723.75
2023-05-20T19:31:07.267Z,99722.88
2023-05-20T19:33:35.014Z,99717.38
2023-05-20T19:36:02.758Z,99724.97
2023-05-20T19:38:30.215Z,99718.00
2023-05-20T19:40:58.231Z,99721.63
2023-05-20T19:43:25.730Z,99723.78
2023-05-20T19:45:53.624Z,99721.38
2023-05-20T19:48:22.429Z,99723.03
2023-05-20T19:50:50.717Z,99717.53
2023-05-20T19:53:19.941Z,99721.31
2023-05-20T19:55:47.946Z,99723.66
2023-05-20T19:58:15.498Z,99715.78
2023-05-20T20:00:43.295Z,99716.41
2023-05-20T20:03:11.348Z,99708.28
2023-05-20T20:05:39.350Z,99709.47
2023-05-20T20:08:07.260Z,99707.19
2023-05-20T20:10:37.543Z,99724.13
2023-05-20T20:13:05.561Z,99724.34
2023-05-20T20:15:33.372Z,99714.56
2023-05-20T20:18:02.921Z,99717.22
2023-05-20T20:20:31.212Z,99712.78
2023-05-20T20:22:58.749Z,99713.84
2023-05-20T20:25:26.878Z,99709.13
2023-05-20T20:27:54.573Z,99716.25
2023-05-20T20:30:22.062Z,99711.44
2023-05-20T20:32:49.843Z,99706.88
2023-05-20T20:35:17.344Z,99711.53
2023-05-20T20:37:45.136Z,99708.38
2023-05-20T20:40:16.412Z,99713.38
2023-05-20T20:42:45.312Z,99719.37
2023-05-20T20:45:13.210Z,99711.50
2023-05-20T20:47:41.749Z,99703.41
2023-05-20T20:50:11.582Z,99706.13
2023-05-20T20:52:39.955Z,99709.78
2023-05-20T20:55:07.757Z,99705.59
2023-05-20T20:57:35.329Z,99704.44
2023-05-20T21:00:17.736Z,99698.16
2023-05-20T21:02:45.280Z,99693.72
2023-05-20T21:05:16.838Z,99693.81
2023-05-20T21:07:49.693Z,99699.34
2023-05-20T21:10:17.873Z,99692.38
2023-05-20T21:12:45.618Z,99691.41
2023-05-20T21:15:14.909Z,99690.56
2023-05-20T21:17:42.709Z,99699.81
2023-05-20T21:20:10.882Z,99704.19
2023-05-20T21:22:38.354Z,99698.44
2023-05-20T21:25:06.696Z,99696.22
2023-05-20T21:27:34.186Z,99699.69
2023-05-20T21:30:01.755Z,99707.53
2023-05-20T21:32:30.587Z,99699.59
2023-05-20T21:34:58.437Z,99698.50
2023-05-20T21:37:26.048Z,99709.56
2023-05-20T21:39:53.781Z,99699.72
2023-05-20T21:42:21.335Z,99697.44
2023-05-20T21:44:48.805Z,99692.25
2023-05-20T21:47:16.916Z,99687.56
2023-05-20T21:49:44.636Z,99679.38
2023-05-20T21:52:12.145Z,99686.69
2023-05-20T21:54:40.289Z,99678.16
2023-05-20T21:57:07.788Z,99685.28
2023-05-20T21:59:35.281Z,99688.19
2023-05-20T22:02:03.107Z,99681.06
2023-05-20T22:04:33.352Z,99686.56
2023-05-20T22:07:00.978Z,99682.28
2023-05-20T22:09:28.647Z,99679.88
2023-05-20T22:11:56.528Z,99680.66
2023-05-20T22:14:24.140Z,99686.47
2023-05-20T22:16:51.638Z,99676.78
2023-05-20T22:19:19.484Z,99683.78
2023-05-20T22:21:50.821Z,99681.94
2023-05-20T22:24:18.982Z,99688.50
2023-05-20T22:26:46.484Z,99691.88
2023-05-20T22:29:14.028Z,99680.34
2023-05-20T22:31:41.768Z,99691.44
2023-05-20T22:34:09.239Z,99679.13
2023-05-20T22:36:37.473Z,99682.56
2023-05-20T22:39:06.991Z,99676.84
2023-05-20T22:41:34.550Z,99674.22
2023-05-20T22:44:02.913Z,99688.91
2023-05-20T22:46:30.710Z,99686.06
2023-05-20T22:48:58.474Z,99695.09
2023-05-20T22:51:25.987Z,99685.88
2023-05-20T22:53:53.733Z,99690.44
2023-05-20T22:56:21.342Z,99687.69
2023-05-20T22:58:48.816Z,99688.63
2023-05-20T23:01:16.855Z,99697.09
2023-05-20T23:03:44.970Z,99703.84
2023-05-20T23:06:12.813Z,99680.41
2023-05-20T23:08:42.912Z,99694.84
2023-05-20T23:11:10.767Z,99694.59
2023-05-20T23:13:38.229Z,99697.50
2023-05-20T23:16:06.098Z,99682.41
2023-05-20T23:18:33.660Z,99687.81
2023-05-20T23:21:01.239Z,99688.34
2023-05-20T23:23:31.857Z,99694.75
2023-05-20T23:26:00.169Z,99688.28
2023-05-20T23:28:27.756Z,99688.94
2023-05-20T23:30:55.540Z,99680.31
2023-05-20T23:33:25.484Z,99684.72
2023-05-20T23:35:53.481Z,99695.19
2023-05-20T23:38:21.541Z,99687.28
2023-05-20T23:40:49.471Z,99687.69
2023-05-20T23:43:17.023Z,99695.84
2023-05-20T23:45:44.822Z,99689.72
2023-05-20T23:48:13.669Z,99687.00
2023-05-20T23:50:41.268Z,99678.84
2023-05-20T23:53:09.098Z,99677.16
2023-05-20T23:55:36.931Z,99680.97
2023-05-20T23:58:04.683Z,99669.34
